Time;durP1;ratioP1;P1;durP2;ratioP2;P2;SDS_P1;SDS_P2;PMS_P1;PMS_P2;Temp;Humidity;BMP_temperature;BMP_pressure;BME280_temperature;BME280_humidity;BME280_pressure;Samples;Min_cycle;Max_cycle;Signal;HPM_P1;HPM_P2
2021/01/21 00:01:13;;;;;;;2.10;1.43;;;24.60;26.90;;;;;;5054379;28;20421;-70
2021/01/21 00:03:39;;;;;;;2.10;1.50;;;24.60;27.00;;;;;;5054459;28;20393;-69
2021/01/21 00:06:05;;;;;;;2.00;1.30;;;24.60;27.00;;;;;;5054353;28;20397;-69
2021/01/21 00:08:30;;;;;;;2.05;1.35;;;24.50;27.00;;;;;;5054170;28;20417;-59
2021/01/21 00:10:56;;;;;;;2.03;1.30;;;24.50;27.00;;;;;;5054061;28;20401;-70
2021/01/21 00:13:22;;;;;;;1.90;1.20;;;24.50;27.10;;;;;;5054272;28;20389;-71
2021/01/21 00:15:47;;;;;;;2.00;1.50;;;24.50;27.10;;;;;;5054117;28;20397;-71
2021/01/21 00:18:13;;;;;;;2.63;1.60;;;24.40;27.10;;;;;;5052839;28;20386;-72
2021/01/21 00:20:38;;;;;;;1.92;1.40;;;24.40;27.10;;;;;;5053576;28;20432;-68
2021/01/21 00:23:04;;;;;;;1.70;1.20;;;24.30;27.10;;;;;;5054000;28;20920;-70
2021/01/21 00:25:30;;;;;;;1.87;1.20;;;24.30;27.00;;;;;;5053847;28;20414;-70
2021/01/21 00:27:55;;;;;;;2.15;1.40;;;24.30;27.10;;;;;;5052815;28;20397;-70
2021/01/21 00:30:21;;;;;;;2.30;1.50;;;24.20;27.10;;;;;;5053857;28;20424;-70
2021/01/21 00:32:47;;;;;;;1.88;1.05;;;24.20;27.10;;;;;;5053527;28;20539;-71
2021/01/21 00:35:15;;;;;;;2.30;1.30;;;24.20;27.20;;;;;;5053623;28;20405;-71
2021/01/21 00:37:41;;;;;;;2.08;1.20;;;24.20;27.20;;;;;;5053761;28;20984;-71
2021/01/21 00:40:07;;;;;;;1.90;1.10;;;24.20;27.30;;;;;;5052355;28;20896;-71
2021/01/21 00:42:33;;;;;;;1.73;1.10;;;24.10;27.30;;;;;;5053413;28;20627;-70
2021/01/21 00:44:59;;;;;;;1.80;1.10;;;24.10;27.20;;;;;;5053199;28;20483;-69
2021/01/21 00:47:25;;;;;;;1.88;1.23;;;24.10;27.30;;;;;;5053625;28;20487;-71
2021/01/21 00:49:51;;;;;;;1.58;1.10;;;24.00;27.20;;;;;;5053606;28;20482;-71
2021/01/21 00:52:17;;;;;;;1.73;1.15;;;24.00;27.30;;;;;;5053470;28;20398;-71
2021/01/21 00:54:42;;;;;;;1.65;1.10;;;24.00;27.30;;;;;;5052990;28;20392;-71
2021/01/21 00:57:08;;;;;;;1.80;1.10;;;23.90;27.30;;;;;;5053318;28;20408;-71
2021/01/21 00:59:34;;;;;;;1.50;1.00;;;23.90;27.40;;;;;;5052126;28;20393;-71
2021/01/21 01:02:00;;;;;;;1.70;1.20;;;23.90;27.40;;;;;;5053187;28;20516;-71
2021/01/21 01:04:26;;;;;;;1.77;1.00;;;23.90;27.40;;;;;;5053304;28;20964;-71
2021/01/21 01:06:52;;;;;;;1.83;1.20;;;23.80;27.30;;;;;;5052708;28;20884;-70
2021/01/21 01:09:18;;;;;;;1.80;1.10;;;23.80;27.30;;;;;;5053293;28;20381;-71
2021/01/21 01:11:43;;;;;;;1.50;0.93;;;23.80;27.30;;;;;;5053191;28;20454;-70
2021/01/21 01:14:09;;;;;;;1.90;1.00;;;23.70;27.30;;;;;;5052833;28;20410;-71
2021/01/21 01:16:35;;;;;;;1.60;1.10;;;23.70;27.30;;;;;;5051557;28;20402;-70
2021/01/21 01:19:00;;;;;;;2.10;1.10;;;23.60;27.60;;;;;;5052764;28;20390;-70
2021/01/21 01:21:26;;;;;;;1.80;1.00;;;23.60;27.40;;;;;;5052919;28;20743;-70
2021/01/21 01:23:52;;;;;;;1.73;0.95;;;23.60;27.40;;;;;;5052994;28;20381;-71
2021/01/21 01:26:20;;;;;;;1.48;1.00;;;23.50;27.30;;;;;;5052807;28;20397;-71
2021/01/21 01:28:46;;;;;;;1.45;0.90;;;23.50;27.40;;;;;;5052479;28;20527;-71
2021/01/21 01:31:12;;;;;;;1.50;0.95;;;23.50;27.40;;;;;;5051356;28;20386;-69
2021/01/21 01:33:37;;;;;;;1.67;1.00;;;23.40;27.40;;;;;;5051300;28;20916;-71
2021/01/21 01:36:04;;;;;;;1.80;1.10;;;23.40;27.40;;;;;;5051396;28;20409;-71
2021/01/21 01:38:30;;;;;;;1.42;1.00;;;23.40;27.50;;;;;;5052441;28;20377;-70
2021/01/21 01:40:55;;;;;;;1.70;0.97;;;23.30;27.50;;;;;;5050676;28;20420;-69
2021/01/21 01:43:21;;;;;;;1.60;0.98;;;23.30;27.50;;;;;;5052423;28;20882;-70
2021/01/21 01:45:48;;;;;;;1.35;0.90;;;23.30;27.40;;;;;;5050527;28;20421;-71
2021/01/21 01:48:14;;;;;;;1.47;0.90;;;23.20;27.50;;;;;;5048381;28;20397;-73
2021/01/21 01:50:40;;;;;;;1.48;0.95;;;23.20;27.50;;;;;;5052135;28;20393;-71
2021/01/21 01:53:07;;;;;;;1.27;0.90;;;23.10;27.50;;;;;;5052380;28;20394;-71
2021/01/21 01:55:33;;;;;;;1.60;1.00;;;23.10;27.50;;;;;;5052385;28;20465;-70
2021/01/21 01:57:59;;;;;;;1.50;0.80;;;23.10;27.50;;;;;;5050943;28;20484;-70
2021/01/21 02:00:25;;;;;;;1.70;0.90;;;23.00;27.50;;;;;;5051972;28;20405;-70
2021/01/21 02:02:51;;;;;;;1.70;0.80;;;23.00;27.50;;;;;;5051689;28;20393;-71
2021/01/21 02:05:18;;;;;;;1.15;0.70;;;23.00;27.50;;;;;;5067456;28;21310;-72
2021/01/21 02:07:44;;;;;;;1.20;0.80;;;22.90;27.60;;;;;;5052171;28;20459;-69
2021/01/21 02:10:13;;;;;;;1.50;0.90;;;22.90;27.50;;;;;;5052132;28;20385;-71
2021/01/21 02:12:59;;;;;;;1.42;0.90;;;22.90;27.60;;;;;;5051897;28;20765;-70
2021/01/21 02:15:40;;;;;;;1.40;0.80;;;22.90;27.60;;;;;;5052002;28;20385;-71
2021/01/21 02:18:13;;;;;;;1.35;0.80;;;22.80;27.60;;;;;;5052008;28;20388;-71
2021/01/21 02:20:50;;;;;;;1.00;0.70;;;22.80;27.60;;;;;;5051683;28;20413;-68
2021/01/21 02:23:34;;;;;;;1.23;0.70;;;22.80;27.70;;;;;;5051781;28;20400;-71
2021/01/21 02:26:05;;;;;;;1.13;0.77;;;22.80;27.60;;;;;;5051808;28;20452;-70
2021/01/21 02:29:09;;;;;;;1.40;0.77;;;22.70;28.10;;;;;;5051922;28;20390;-70
2021/01/21 02:32:11;;;;;;;1.25;0.80;;;22.70;27.80;;;;;;5051573;28;20486;-71
2021/01/21 02:34:47;;;;;;;1.10;0.70;;;22.70;27.60;;;;;;5033070;28;20417;-71
2021/01/21 02:37:26;;;;;;;0.90;0.60;;;22.60;27.70;;;;;;5051641;28;20459;-70
2021/01/21 02:39:56;;;;;;;1.20;0.80;;;22.60;27.60;;;;;;5051726;28;20396;-71
2021/01/21 02:42:22;;;;;;;1.13;0.73;;;22.50;27.50;;;;;;5067041;28;20956;-71
2021/01/21 02:44:48;;;;;;;1.10;0.80;;;22.50;27.70;;;;;;5051044;28;20880;-71
2021/01/21 02:47:15;;;;;;;1.50;0.93;;;22.50;28.10;;;;;;5066950;28;20898;-70
2021/01/21 02:49:42;;;;;;;1.10;0.80;;;22.50;27.60;;;;;;5050950;28;20727;-70
2021/01/21 02:52:32;;;;;;;1.27;0.80;;;22.40;27.70;;;;;;5051401;28;20378;-70
2021/01/21 02:55:25;;;;;;;1.20;0.80;;;22.40;27.80;;;;;;5051141;28;20767;-70
2021/01/21 02:58:02;;;;;;;1.40;0.80;;;22.30;28.20;;;;;;5050162;28;20381;-72
2021/01/21 03:00:30;;;;;;;1.13;0.65;;;22.30;28.50;;;;;;5051629;28;20393;-71
2021/01/21 03:02:59;;;;;;;1.10;0.75;;;22.30;28.10;;;;;;5066315;28;20405;-71
2021/01/21 03:05:27;;;;;;;1.23;0.80;;;22.20;28.20;;;;;;5051345;28;20390;-70
2021/01/21 03:07:54;;;;;;;1.10;0.70;;;22.20;28.40;;;;;;5051326;28;20390;-70
2021/01/21 03:10:21;;;;;;;1.30;0.70;;;22.20;28.20;;;;;;5051829;28;20468;-70
2021/01/21 03:12:57;;;;;;;1.40;0.80;;;22.20;28.20;;;;;;5050773;28;20893;-71
2021/01/21 03:15:24;;;;;;;1.30;0.80;;;22.20;28.30;;;;;;5051209;28;20385;-71
2021/01/21 03:17:50;;;;;;;1.27;0.70;;;22.10;28.00;;;;;;5066711;28;20890;-71
2021/01/21 03:20:16;;;;;;;1.30;0.80;;;22.10;28.40;;;;;;5051313;28;20385;-70
2021/01/21 03:22:42;;;;;;;1.23;0.70;;;22.10;28.20;;;;;;5051005;28;20420;-70
2021/01/21 03:25:09;;;;;;;1.30;0.70;;;22.00;28.40;;;;;;5066352;28;20377;-71
2021/01/21 03:27:35;;;;;;;1.42;0.70;;;22.00;27.90;;;;;;5051185;28;20389;-71
2021/01/21 03:30:01;;;;;;;1.52;0.70;;;22.00;27.90;;;;;;5051212;28;20472;-70
2021/01/21 03:32:27;;;;;;;1.05;0.70;;;22.00;28.20;;;;;;5051066;28;20382;-71
2021/01/21 03:34:52;;;;;;;1.47;0.70;;;21.90;28.10;;;;;;5050514;28;20417;-71
2021/01/21 03:37:18;;;;;;;1.23;0.70;;;21.90;27.90;;;;;;5051007;28;20400;-71
2021/01/21 03:39:43;;;;;;;1.23;0.80;;;21.90;27.90;;;;;;5051027;28;20468;-68
2021/01/21 03:42:09;;;;;;;1.40;0.80;;;21.90;28.00;;;;;;5050956;28;20503;-70
2021/01/21 03:44:35;;;;;;;1.00;0.63;;;21.80;27.90;;;;;;5066428;28;20481;-71
2021/01/21 03:47:00;;;;;;;1.27;0.77;;;21.80;27.90;;;;;;5050435;28;20949;-71
2021/01/21 03:49:26;;;;;;;1.10;0.70;;;21.80;28.10;;;;;;5050979;28;20389;-71
2021/01/21 03:51:51;;;;;;;1.10;0.70;;;21.80;27.90;;;;;;5050949;28;20389;-70
2021/01/21 03:54:17;;;;;;;1.30;0.80;;;21.70;27.90;;;;;;5050929;28;20390;-71
2021/01/21 03:56:43;;;;;;;1.20;0.80;;;21.70;28.00;;;;;;5050631;28;20822;-70
2021/01/21 03:59:08;;;;;;;0.90;0.60;;;21.70;28.00;;;;;;5050690;28;20402;-71
2021/01/21 04:01:34;;;;;;;1.42;0.77;;;21.70;28.10;;;;;;5052314;28;20448;-71
2021/01/21 04:03:59;;;;;;;1.00;0.70;;;21.70;28.00;;;;;;5054471;28;20476;-71
2021/01/21 04:06:25;;;;;;;1.25;0.60;;;21.60;28.00;;;;;;5054501;28;20393;-70
2021/01/21 04:08:51;;;;;;;1.50;0.70;;;21.70;28.10;;;;;;5028614;28;20392;-70
2021/01/21 04:11:16;;;;;;;1.30;0.70;;;21.60;28.30;;;;;;5068269;28;20401;-70
2021/01/21 04:13:42;;;;;;;1.35;0.82;;;21.70;29.20;;;;;;5054572;28;20382;-71
2021/01/21 04:16:08;;;;;;;1.50;0.90;;;21.70;29.20;;;;;;5054170;28;20381;-71
2021/01/21 04:18:33;;;;;;;1.23;0.77;;;21.70;29.10;;;;;;5054309;28;20726;-71
2021/01/21 04:20:59;;;;;;;1.40;0.70;;;21.70;29.20;;;;;;5053920;28;20396;-71
2021/01/21 04:23:24;;;;;;;1.90;0.80;;;21.70;29.00;;;;;;5054181;28;20397;-63
2021/01/21 04:25:50;;;;;;;1.07;0.70;;;21.60;29.50;;;;;;5054072;28;20722;-71
2021/01/21 04:28:16;;;;;;;1.48;0.90;;;21.60;29.50;;;;;;5053867;28;20397;-72
2021/01/21 04:30:42;;;;;;;1.38;0.70;;;21.60;29.60;;;;;;5054068;28;20389;-71
2021/01/21 04:33:07;;;;;;;1.50;0.60;;;21.60;29.30;;;;;;5053480;28;21325;-71
2021/01/21 04:35:33;;;;;;;1.50;0.70;;;21.60;29.60;;;;;;5053557;28;20404;-71
2021/01/21 04:37:59;;;;;;;1.40;0.63;;;21.60;30.60;;;;;;5053762;28;20396;-72
2021/01/21 04:40:28;;;;;;;3.35;0.80;;;21.60;29.80;;;;;;5053766;28;20389;-69
2021/01/21 04:42:54;;;;;;;3.55;0.70;;;21.60;29.90;;;;;;5052705;28;20389;-70
2021/01/21 04:45:20;;;;;;;1.50;0.70;;;21.60;30.60;;;;;;5053751;28;20419;-72
2021/01/21 04:47:46;;;;;;;1.48;0.75;;;21.70;30.80;;;;;;5069155;28;20897;-72
2021/01/21 04:50:12;;;;;;;1.70;0.70;;;21.70;31.60;;;;;;5053598;28;20810;-73
2021/01/21 04:52:44;;;;;;;1.13;0.70;;;21.70;31.80;;;;;;5053590;28;20393;-72
2021/01/21 04:55:18;;;;;;;2.65;0.60;;;21.70;32.50;;;;;;5053229;28;20389;-71
2021/01/21 04:57:52;;;;;;;1.13;0.70;;;21.70;31.10;;;;;;5053591;28;20436;-71
2021/01/21 05:00:18;;;;;;;1.80;0.70;;;21.70;31.00;;;;;;5053330;28;20397;-71
2021/01/21 05:02:45;;;;;;;1.35;0.65;;;21.70;30.90;;;;;;5053069;28;20912;-59
2021/01/21 05:05:11;;;;;;;2.57;0.73;;;21.60;30.60;;;;;;5053047;28;20381;-72
2021/01/21 05:07:38;;;;;;;2.75;0.70;;;21.60;30.50;;;;;;5053239;28;20390;-71
2021/01/21 05:10:06;;;;;;;2.70;0.73;;;21.50;30.30;;;;;;5053149;28;20388;-71
2021/01/21 05:12:32;;;;;;;3.47;0.65;;;21.50;30.80;;;;;;5052783;28;20389;-72
2021/01/21 05:14:58;;;;;;;1.92;0.60;;;21.50;30.40;;;;;;5052557;28;20396;-71
2021/01/21 05:17:24;;;;;;;2.30;0.60;;;21.50;30.50;;;;;;5053111;28;20396;-72
2021/01/21 05:19:52;;;;;;;3.43;0.70;;;21.40;30.30;;;;;;5068576;28;20404;-72
2021/01/21 05:22:19;;;;;;;1.40;0.60;;;21.40;30.30;;;;;;5052952;28;20425;-72
2021/01/21 05:24:45;;;;;;;4.28;0.70;;;21.40;30.20;;;;;;5053022;28;20788;-65
2021/01/21 05:27:12;;;;;;;2.95;0.75;;;21.40;30.20;;;;;;5052780;28;20476;-72
2021/01/21 05:29:41;;;;;;;2.50;0.70;;;21.40;30.40;;;;;;5052826;28;20389;-72
2021/01/21 05:32:07;;;;;;;1.92;0.70;;;21.40;30.40;;;;;;5052763;28;20393;-72
2021/01/21 05:34:33;;;;;;;2.95;0.80;;;21.30;30.30;;;;;;5052608;28;20762;-73
2021/01/21 05:37:00;;;;;;;2.22;0.80;;;21.30;30.70;;;;;;5052232;28;20849;-57
2021/01/21 05:39:36;;;;;;;2.97;0.70;;;21.30;30.80;;;;;;5052666;28;20397;-72
2021/01/21 05:42:02;;;;;;;2.95;0.80;;;21.30;30.30;;;;;;5052568;28;20816;-72
2021/01/21 05:44:28;;;;;;;2.22;0.80;;;21.20;30.10;;;;;;5051490;28;20440;-72
2021/01/21 05:46:53;;;;;;;3.60;1.00;;;21.20;30.40;;;;;;5052072;28;20432;-70
2021/01/21 05:49:19;;;;;;;2.40;0.70;;;21.20;30.30;;;;;;5052249;28;20404;-68
2021/01/21 05:51:46;;;;;;;3.00;0.80;;;21.20;30.40;;;;;;5052445;28;20873;-72
2021/01/21 05:54:12;;;;;;;2.90;0.70;;;21.20;30.50;;;;;;5052375;28;20389;-72
2021/01/21 05:56:38;;;;;;;2.88;0.63;;;21.20;30.40;;;;;;5052349;28;20386;-73
2021/01/21 05:59:04;;;;;;;3.10;0.70;;;21.20;30.40;;;;;;5051767;28;20385;-70
2021/01/21 06:01:32;;;;;;;1.58;0.70;;;21.20;30.40;;;;;;5052212;28;20815;-72
2021/01/21 06:03:57;;;;;;;2.33;0.90;;;21.10;30.30;;;;;;5052312;28;20869;-74
2021/01/21 06:06:27;;;;;;;2.60;0.90;;;21.10;30.20;;;;;;5052341;28;20408;-73
2021/01/21 06:08:52;;;;;;;1.45;0.80;;;21.10;30.10;;;;;;5052109;28;20385;-65
2021/01/21 06:11:20;;;;;;;1.55;0.80;;;21.10;30.10;;;;;;5052113;28;20476;-73
2021/01/21 06:13:47;;;;;;;2.40;0.75;;;21.10;30.10;;;;;;5052158;28;20385;-73
2021/01/21 06:16:15;;;;;;;2.22;0.80;;;21.10;30.10;;;;;;5052128;28;20424;-72
2021/01/21 06:18:40;;;;;;;1.50;0.90;;;21.00;30.00;;;;;;5052127;28;20378;-72
2021/01/21 06:21:09;;;;;;;2.57;0.70;;;21.10;30.00;;;;;;5051352;28;20755;-72
2021/01/21 06:23:37;;;;;;;1.33;0.80;;;21.20;30.00;;;;;;5052005;28;20417;-71
2021/01/21 06:26:05;;;;;;;1.60;0.90;;;21.20;29.90;;;;;;5050921;28;20432;-72
2021/01/21 06:28:32;;;;;;;2.13;1.00;;;21.20;29.90;;;;;;5051740;28;20862;-70
2021/01/21 06:30:59;;;;;;;1.85;0.90;;;21.30;29.90;;;;;;5048988;28;20522;-62
2021/01/21 06:33:40;;;;;;;2.03;1.20;;;21.30;29.70;;;;;;5049655;28;20397;-71
2021/01/21 06:36:13;;;;;;;2.70;1.30;;;21.40;29.60;;;;;;5048771;28;20397;-59
2021/01/21 06:38:42;;;;;;;2.15;1.27;;;21.40;29.60;;;;;;5051153;28;20402;-73
2021/01/21 06:41:16;;;;;;;2.30;1.20;;;21.50;29.60;;;;;;5048893;28;20661;-72
2021/01/21 06:43:42;;;;;;;2.83;1.30;;;21.50;29.60;;;;;;5031557;28;20414;-72
2021/01/21 06:46:08;;;;;;;2.30;1.40;;;21.50;29.50;;;;;;5030257;28;20382;-72
2021/01/21 06:48:34;;;;;;;2.20;1.40;;;21.50;29.50;;;;;;5038501;28;20422;-70
2021/01/21 06:51:09;;;;;;;2.65;1.30;;;21.50;29.40;;;;;;5050348;28;20385;-69
2021/01/21 06:53:41;;;;;;;2.58;1.50;;;21.50;29.40;;;;;;5051669;28;20382;-73
2021/01/21 06:56:06;;;;;;;2.47;1.63;;;21.50;29.20;;;;;;5050073;28;20761;-72
2021/01/21 06:58:53;;;;;;;3.65;1.80;;;21.60;28.70;;;;;;5050040;28;20393;-72
2021/01/21 07:01:30;;;;;;;4.80;2.10;;;21.70;29.10;;;;;;5040801;28;20418;-72
2021/01/21 07:04:18;;;;;;;4.15;1.50;;;21.70;29.40;;;;;;5049799;28;20901;-69
2021/01/21 07:06:50;;;;;;;4.03;1.80;;;21.70;29.80;;;;;;5031557;28;20848;-72
2021/01/21 07:09:17;;;;;;;4.55;1.70;;;21.60;29.90;;;;;;5031130;28;20473;-72
2021/01/21 07:11:45;;;;;;;3.88;1.63;;;21.60;30.10;;;;;;5031585;28;20466;-71
2021/01/21 07:14:11;;;;;;;3.67;1.60;;;21.60;30.00;;;;;;5063375;28;20760;-71
2021/01/21 07:16:37;;;;;;;2.72;1.60;;;21.60;29.90;;;;;;5031397;28;20383;-72
2021/01/21 07:19:04;;;;;;;3.30;1.60;;;21.60;29.60;;;;;;5030770;28;20391;-72
2021/01/21 07:21:32;;;;;;;3.03;1.80;;;21.60;29.70;;;;;;5031192;28;20497;-72
2021/01/21 07:24:00;;;;;;;3.78;2.00;;;21.60;29.60;;;;;;5031343;28;20462;-72
2021/01/21 07:26:30;;;;;;;3.53;1.90;;;21.60;29.60;;;;;;5031270;28;20494;-71
2021/01/21 07:29:08;;;;;;;4.32;1.80;;;21.60;29.60;;;;;;5030754;28;20739;-61
2021/01/21 07:31:51;;;;;;;3.92;1.70;;;21.60;29.50;;;;;;5031279;28;20461;-72
2021/01/21 07:34:39;;;;;;;2.72;1.60;;;21.60;29.40;;;;;;5030880;28;20935;-71
2021/01/21 07:37:19;;;;;;;3.50;1.70;;;21.60;29.30;;;;;;5033164;28;20932;-61
2021/01/21 07:39:56;;;;;;;3.72;1.60;;;21.60;29.30;;;;;;5039566;28;20389;-58
2021/01/21 07:42:44;;;;;;;3.07;1.70;;;21.60;29.20;;;;;;5054991;28;20750;-72
2021/01/21 07:45:19;;;;;;;3.22;1.55;;;21.60;29.20;;;;;;5050190;28;20455;-71
2021/01/21 07:47:47;;;;;;;2.80;1.70;;;21.60;29.10;;;;;;5054841;28;20392;-72
2021/01/21 07:50:19;;;;;;;2.70;1.90;;;21.60;29.00;;;;;;5053360;28;20389;-72
2021/01/21 07:52:49;;;;;;;2.85;1.83;;;21.60;29.00;;;;;;5054698;28;20479;-72
2021/01/21 07:55:23;;;;;;;2.93;1.77;;;21.70;29.00;;;;;;5054192;28;20382;-70
2021/01/21 07:57:49;;;;;;;3.28;2.00;;;21.60;28.80;;;;;;5053415;28;20429;-72
2021/01/21 08:00:15;;;;;;;3.70;2.10;;;21.60;28.80;;;;;;5053266;28;20520;-72
2021/01/21 08:02:51;;;;;;;2.65;1.90;;;21.60;28.80;;;;;;5054229;28;20417;-65
2021/01/21 08:05:19;;;;;;;3.13;1.90;;;21.60;28.70;;;;;;5054021;28;20386;-69
2021/01/21 08:07:45;;;;;;;2.47;1.70;;;21.60;28.60;;;;;;5054462;28;20531;-73
2021/01/21 08:10:12;;;;;;;2.60;1.50;;;21.70;28.60;;;;;;5054358;28;20935;-74
2021/01/21 08:12:38;;;;;;;2.30;1.60;;;21.70;28.50;;;;;;5054374;28;20404;-73
2021/01/21 08:15:05;;;;;;;2.95;1.65;;;21.70;28.60;;;;;;5053755;28;20484;-70
2021/01/21 08:17:30;;;;;;;2.13;1.40;;;21.70;28.70;;;;;;5052152;28;20398;-72
2021/01/21 08:19:56;;;;;;;2.25;1.40;;;21.70;29.00;;;;;;5053644;28;20393;-73
2021/01/21 08:22:22;;;;;;;2.10;1.50;;;21.70;29.20;;;;;;5054067;28;20421;-74
2021/01/21 08:25:00;;;;;;;2.00;1.50;;;21.70;29.30;;;;;;5054298;28;20738;-74
2021/01/21 08:27:45;;;;;;;2.58;1.50;;;21.70;29.30;;;;;;5054056;28;20738;-73
2021/01/21 08:30:20;;;;;;;2.30;1.38;;;21.70;29.50;;;;;;5053381;28;20936;-73
2021/01/21 08:32:51;;;;;;;2.10;1.33;;;21.70;29.60;;;;;;5054078;28;20462;-73
2021/01/21 08:35:23;;;;;;;1.90;1.42;;;21.70;29.60;;;;;;5053323;28;20405;-74
2021/01/21 08:37:51;;;;;;;2.70;1.63;;;21.70;29.70;;;;;;5054106;28;20393;-73
2021/01/21 08:40:18;;;;;;;2.90;1.50;;;21.70;29.70;;;;;;5053822;28;20439;-73
2021/01/21 08:42:46;;;;;;;1.83;1.30;;;21.70;29.70;;;;;;5053731;28;20424;-73
2021/01/21 08:45:12;;;;;;;2.30;1.40;;;21.70;29.70;;;;;;5053249;28;20386;-73
2021/01/21 08:47:48;;;;;;;2.55;1.48;;;21.70;29.80;;;;;;5052866;28;20385;-73
2021/01/21 08:50:17;;;;;;;2.72;1.58;;;21.70;29.80;;;;;;5053716;28;20393;-73
2021/01/21 08:53:05;;;;;;;2.38;1.27;;;21.70;29.70;;;;;;5053647;28;20503;-69
2021/01/21 08:55:47;;;;;;;2.47;1.48;;;21.70;29.80;;;;;;5053503;28;20421;-66
2021/01/21 08:58:14;;;;;;;2.65;1.27;;;21.70;29.80;;;;;;5051098;28;20481;-74
2021/01/21 09:01:02;;;;;;;1.80;1.40;;;21.70;29.80;;;;;;5053243;28;20750;-73
2021/01/21 09:03:54;;;;;;;3.03;1.48;;;21.70;29.80;;;;;;5053472;28;20484;-73
2021/01/21 09:06:22;;;;;;;2.95;1.50;;;21.70;29.90;;;;;;5052160;28;20480;-73
2021/01/21 09:08:50;;;;;;;2.13;1.50;;;21.60;29.90;;;;;;5049785;28;20782;-73
2021/01/21 09:11:28;;;;;;;2.33;1.30;;;21.60;29.90;;;;;;5051593;28;20397;-73
2021/01/21 09:13:55;;;;;;;2.58;1.30;;;21.60;29.90;;;;;;5050496;28;20935;-73
2021/01/21 09:16:41;;;;;;;2.47;1.42;;;21.60;29.80;;;;;;5052299;28;20481;-72
2021/01/21 09:19:07;;;;;;;1.95;1.40;;;21.70;29.90;;;;;;5051289;28;20465;-73
2021/01/21 09:21:32;;;;;;;2.50;1.35;;;21.70;29.90;;;;;;5051669;28;20509;-73
2021/01/21 09:24:06;;;;;;;1.90;1.30;;;21.80;29.90;;;;;;5052875;28;20416;-73
2021/01/21 09:26:32;;;;;;;1.70;1.30;;;21.80;29.80;;;;;;5052753;28;20754;-73
2021/01/21 09:28:58;;;;;;;1.90;1.30;;;21.80;29.70;;;;;;5052510;28;20373;-73
2021/01/21 09:31:27;;;;;;;1.95;1.30;;;21.80;29.70;;;;;;5052440;28;20911;-74
2021/01/21 09:33:54;;;;;;;1.85;1.20;;;21.90;29.70;;;;;;5052563;28;20397;-73
2021/01/21 09:36:24;;;;;;;1.95;1.30;;;21.90;29.70;;;;;;5052670;28;20897;-73
2021/01/21 09:38:50;;;;;;;1.88;1.20;;;21.90;30.00;;;;;;5052758;28;20425;-74
2021/01/21 09:41:16;;;;;;;1.70;1.30;;;21.90;29.50;;;;;;5050240;28;20522;-74
2021/01/21 09:43:41;;;;;;;1.60;1.05;;;22.00;29.60;;;;;;5052723;28;20491;-74
2021/01/21 09:46:07;;;;;;;1.50;1.03;;;22.00;29.60;;;;;;5050816;28;20374;-73
2021/01/21 09:48:33;;;;;;;1.48;1.00;;;21.90;29.60;;;;;;5049191;28;20397;-60
2021/01/21 09:50:59;;;;;;;1.60;1.17;;;21.80;29.70;;;;;;5049345;28;20389;-60
2021/01/21 09:53:24;;;;;;;2.03;1.15;;;21.90;29.70;;;;;;5052110;28;20734;-59
2021/01/21 09:55:55;;;;;;;1.75;1.10;;;21.90;29.70;;;;;;5052326;28;20397;-59
2021/01/21 09:58:24;;;;;;;1.70;1.20;;;22.00;29.80;;;;;;5052431;28;20381;-74
2021/01/21 10:00:50;;;;;;;1.52;1.00;;;21.90;29.70;;;;;;5052106;28;20731;-73
2021/01/21 10:03:16;;;;;;;1.77;1.10;;;22.00;29.70;;;;;;5048703;28;20404;-73
2021/01/21 10:05:42;;;;;;;1.70;1.10;;;21.90;29.60;;;;;;5052179;28;20707;-73
2021/01/21 10:08:08;;;;;;;1.60;1.10;;;21.90;29.60;;;;;;5051902;28;20938;-73
2021/01/21 10:10:34;;;;;;;1.60;1.10;;;21.90;29.60;;;;;;5052100;28;20436;-74
2021/01/21 10:12:59;;;;;;;1.90;1.25;;;21.80;29.70;;;;;;5051782;28;20969;-73
2021/01/21 10:15:25;;;;;;;2.13;1.10;;;21.80;29.70;;;;;;5051492;28;20471;-73
2021/01/21 10:17:51;;;;;;;1.57;1.10;;;21.80;29.70;;;;;;5051928;28;20385;-74
2021/01/21 10:20:16;;;;;;;1.40;1.00;;;21.80;29.80;;;;;;5052096;28;20390;-74
2021/01/21 10:22:42;;;;;;;1.47;1.10;;;21.80;29.80;;;;;;5051074;28;20509;-73
2021/01/21 10:25:08;;;;;;;2.00;1.00;;;21.80;29.80;;;;;;5051308;28;20392;-62
2021/01/21 10:27:34;;;;;;;1.50;1.02;;;21.80;29.90;;;;;;5051488;28;20424;-60
2021/01/21 10:30:00;;;;;;;1.65;1.00;;;21.80;29.90;;;;;;5051803;28;20412;-73
2021/01/21 10:32:25;;;;;;;1.50;0.90;;;21.80;29.90;;;;;;5051748;28;20866;-73
2021/01/21 10:34:51;;;;;;;2.05;0.98;;;21.80;29.80;;;;;;5051730;28;20825;-72
2021/01/21 10:37:16;;;;;;;1.60;0.90;;;21.80;29.80;;;;;;5051208;28;20404;-73
2021/01/21 10:39:42;;;;;;;1.57;0.93;;;21.70;29.90;;;;;;5050412;28;20423;-74
2021/01/21 10:42:08;;;;;;;1.35;1.00;;;21.80;29.90;;;;;;5051457;28;20461;-73
2021/01/21 10:44:33;;;;;;;1.60;0.90;;;21.80;29.90;;;;;;5051667;28;20390;-73
2021/01/21 10:46:59;;;;;;;1.30;0.90;;;21.80;29.80;;;;;;5051373;28;20398;-66
2021/01/21 10:49:24;;;;;;;1.93;0.90;;;21.80;29.90;;;;;;5051271;28;20412;-73
2021/01/21 10:51:50;;;;;;;1.45;0.80;;;21.80;29.90;;;;;;5051438;28;20397;-74
2021/01/21 10:54:16;;;;;;;1.60;1.07;;;21.90;29.90;;;;;;5051494;28;20428;-73
2021/01/21 10:56:41;;;;;;;2.08;1.10;;;21.90;29.90;;;;;;5051465;28;20393;-74
2021/01/21 10:59:07;;;;;;;1.60;1.00;;;21.90;30.00;;;;;;5050848;28;20390;-73
2021/01/21 11:01:34;;;;;;;1.92;1.00;;;21.90;30.00;;;;;;5050952;28;20413;-73
2021/01/21 11:04:00;;;;;;;1.50;0.90;;;22.00;30.00;;;;;;5049989;28;20390;-63
2021/01/21 11:06:26;;;;;;;1.70;0.80;;;22.00;30.00;;;;;;5031516;28;20391;-73
2021/01/21 11:08:51;;;;;;;1.30;0.80;;;22.00;30.00;;;;;;5031503;28;20748;-73
2021/01/21 11:11:17;;;;;;;1.10;0.80;;;22.00;30.00;;;;;;5032123;28;20894;-73
2021/01/21 11:13:43;;;;;;;1.10;0.70;;;22.00;30.00;;;;;;5035610;28;20426;-73
2021/01/21 11:16:10;;;;;;;1.50;0.80;;;22.00;30.00;;;;;;5035470;28;20397;-73
2021/01/21 11:18:36;;;;;;;1.25;0.80;;;22.00;30.00;;;;;;5035589;28;20481;-72
2021/01/21 11:21:02;;;;;;;1.30;0.80;;;22.00;30.00;;;;;;5035037;28;20899;-73
2021/01/21 11:23:28;;;;;;;1.25;0.73;;;22.00;30.10;;;;;;5035234;28;20486;-73
2021/01/21 11:25:54;;;;;;;1.38;0.77;;;22.00;30.10;;;;;;5035336;28;20438;-72
2021/01/21 11:28:20;;;;;;;1.40;0.80;;;21.90;30.00;;;;;;5035335;28;20448;-73
2021/01/21 11:30:50;;;;;;;1.40;0.80;;;21.90;30.00;;;;;;5035225;28;20395;-71
2021/01/21 11:33:16;;;;;;;1.50;0.77;;;21.90;30.10;;;;;;5034614;28;20403;-74
2021/01/21 11:35:42;;;;;;;1.20;0.80;;;21.90;30.00;;;;;;5035207;28;20394;-68
2021/01/21 11:38:07;;;;;;;1.30;0.70;;;21.90;30.00;;;;;;5035060;28;20394;-73
2021/01/21 11:40:33;;;;;;;1.20;0.80;;;21.80;30.10;;;;;;5035106;28;20470;-74
2021/01/21 11:42:59;;;;;;;1.08;0.68;;;21.80;30.10;;;;;;5033723;28;20493;-73
2021/01/21 11:45:24;;;;;;;1.20;0.80;;;21.80;30.10;;;;;;5033331;28;20479;-73
2021/01/21 11:47:50;;;;;;;1.40;0.80;;;21.80;30.20;;;;;;5035030;28;20387;-73
2021/01/21 11:50:17;;;;;;;1.35;0.80;;;21.80;30.20;;;;;;5034891;28;20394;-73
2021/01/21 11:52:44;;;;;;;1.50;0.80;;;21.80;30.30;;;;;;5035082;28;20507;-73
2021/01/21 11:55:11;;;;;;;1.00;0.60;;;21.80;30.30;;;;;;5037412;28;20389;-73
2021/01/21 11:57:37;;;;;;;1.17;0.80;;;21.80;30.40;;;;;;5054733;28;20394;-74
2021/01/21 12:00:05;;;;;;;1.50;0.70;;;21.70;30.10;;;;;;5054278;28;20515;-73
2021/01/21 12:02:31;;;;;;;1.30;0.87;;;21.70;30.20;;;;;;5053886;28;20899;-73
2021/01/21 12:04:57;;;;;;;1.05;0.70;;;21.80;30.30;;;;;;5054939;28;20467;-71
2021/01/21 12:07:22;;;;;;;1.20;0.70;;;21.80;30.30;;;;;;5053958;28;20411;-65
2021/01/21 12:09:48;;;;;;;1.45;0.90;;;21.70;30.30;;;;;;5054430;28;20394;-66
2021/01/21 12:12:14;;;;;;;0.90;0.60;;;21.70;30.30;;;;;;5054284;28;20423;-66
2021/01/21 12:14:39;;;;;;;1.70;0.70;;;21.70;30.40;;;;;;5054325;28;20385;-73
2021/01/21 12:17:05;;;;;;;1.30;0.70;;;21.70;30.30;;;;;;5054039;28;20900;-73
2021/01/21 12:19:30;;;;;;;1.00;0.63;;;21.70;30.50;;;;;;5054101;28;20388;-74
2021/01/21 12:21:56;;;;;;;1.10;0.70;;;21.70;30.50;;;;;;5053548;28;20505;-70
2021/01/21 12:24:22;;;;;;;1.33;0.60;;;21.70;30.50;;;;;;5053317;28;20425;-63
2021/01/21 12:26:47;;;;;;;1.87;0.70;;;21.70;30.60;;;;;;5054062;28;20389;-66
2021/01/21 12:29:13;;;;;;;2.00;0.60;;;21.70;30.60;;;;;;5053486;28;20389;-64
2021/01/21 12:31:39;;;;;;;1.90;0.73;;;21.70;30.60;;;;;;5054013;28;20396;-61
2021/01/21 12:34:04;;;;;;;1.00;0.70;;;21.70;30.70;;;;;;5053672;28;20822;-63
2021/01/21 12:36:32;;;;;;;1.60;0.60;;;21.70;30.70;;;;;;5052595;28;20480;-59
2021/01/21 12:38:59;;;;;;;1.88;0.90;;;21.70;30.70;;;;;;5053707;28;20738;-59
2021/01/21 12:41:25;;;;;;;1.30;0.68;;;21.70;30.70;;;;;;5053307;28;20471;-60
2021/01/21 12:43:51;;;;;;;0.90;0.60;;;21.70;30.70;;;;;;5053852;28;20390;-74
2021/01/21 12:46:17;;;;;;;1.20;0.57;;;21.60;30.60;;;;;;5053754;28;20382;-72
2021/01/21 12:48:42;;;;;;;1.10;0.60;;;21.70;30.70;;;;;;5053727;28;20377;-74
2021/01/21 12:51:08;;;;;;;1.10;0.60;;;21.70;30.70;;;;;;5053367;28;20382;-59
2021/01/21 12:53:33;;;;;;;0.90;0.60;;;21.70;30.70;;;;;;5053363;28;20882;-60